createdAt,value
2023-02-01T00:00:28.145Z,3.536071777
2023-02-01T00:01:28.881Z,3.536071777
2023-02-01T00:02:29.536Z,3.556213379
2023-02-01T00:03:30.727Z,3.536071777
2023-02-01T00:04:31.253Z,3.556213379
2023-02-01T00:05:31.876Z,3.56628418
2023-02-01T00:06:32.493Z,3.56628418
2023-02-01T00:07:32.970Z,3.586425781
2023-02-01T00:08:34.925Z,3.596496582
2023-02-01T00:09:35.433Z,3.596496582
2023-02-01T00:10:36.071Z,3.616638184
2023-02-01T00:11:36.815Z,3.626708984
2023-02-01T00:12:37.533Z,3.626708984
2023-02-01T00:13:38.824Z,3.636779785
2023-02-01T00:14:39.576Z,3.677062988
2023-02-01T00:15:40.225Z,3.707275391
2023-02-01T00:16:40.851Z,3.707275391
2023-02-01T00:17:41.925Z,3.707275391
2023-02-01T00:18:42.366Z,3.69720459
2023-02-01T00:19:42.894Z,3.636779785
2023-02-01T00:20:43.311Z,3.636779785
2023-02-01T00:21:44.250Z,3.616638184
2023-02-01T00:22:44.640Z,3.616638184
2023-02-01T00:23:45.718Z,3.616638184
2023-02-01T00:24:46.175Z,3.586425781
2023-02-01T00:25:47.147Z,3.586425781
2023-02-01T00:26:47.840Z,3.556213379
2023-02-01T00:27:48.204Z,3.536071777
2023-02-01T00:28:48.671Z,3.526000977
2023-02-01T00:29:49.418Z,3.526000977
2023-02-01T00:30:50.736Z,3.526000977
2023-02-01T00:31:51.333Z,3.495788574
2023-02-01T00:32:51.569Z,3.495788574
2023-02-01T00:33:52.735Z,3.526000977
2023-02-01T00:35:23.882Z,3.526000977
2023-02-01T00:36:24.405Z,3.556213379
2023-02-01T00:37:24.859Z,3.556213379
2023-02-01T00:38:25.428Z,3.586425781
2023-02-01T00:39:26.016Z,3.586425781
2023-02-01T00:40:26.539Z,3.586425781
2023-02-01T00:41:27.225Z,3.586425781
2023-02-01T00:42:27.711Z,3.56628418
2023-02-01T00:43:28.216Z,3.56628418
2023-02-01T00:44:29.519Z,3.536071777
2023-02-01T00:45:30.008Z,3.536071777
2023-02-01T00:46:30.477Z,3.526000977
2023-02-01T00:47:31.682Z,3.526000977
2023-02-01T00:48:32.197Z,3.536071777
2023-02-01T00:49:32.647Z,3.556213379
2023-02-01T00:50:33.145Z,3.556213379
2023-02-01T00:51:33.642Z,3.586425781
2023-02-01T00:52:34.193Z,3.596496582
2023-02-01T00:53:35.176Z,3.596496582
2023-02-01T00:54:35.730Z,3.586425781
2023-02-01T00:55:36.685Z,3.56628418
2023-02-01T00:56:37.242Z,3.586425781
2023-02-01T00:57:37.824Z,3.56628418
2023-02-01T00:58:38.343Z,3.586425781
2023-02-01T00:59:38.808Z,3.586425781
2023-02-01T01:00:40.222Z,3.586425781
2023-02-01T01:01:40.538Z,3.586425781
2023-02-01T01:02:41.079Z,3.586425781
2023-02-01T01:03:42.134Z,3.56628418
2023-02-01T01:04:42.570Z,3.56628418
2023-02-01T01:05:43.286Z,3.56628418
2023-02-01T01:06:43.880Z,3.556213379
2023-02-01T01:07:44.526Z,3.536071777
2023-02-01T01:08:44.953Z,3.515930176
2023-02-01T01:09:45.382Z,3.515930176
2023-02-01T01:10:45.966Z,3.485717773
2023-02-01T01:11:46.479Z,3.455505371
2023-02-01T01:12:47.105Z,3.43536377
2023-02-01T01:13:48.159Z,3.405151367
2023-02-01T01:14:48.594Z,3.374938965
2023-02-01T01:15:49.283Z,3.354797363
2023-02-01T01:16:49.804Z,3.344726563
2023-02-01T01:17:51.217Z,3.344726563
2023-02-01T01:18:51.756Z,3.31451416
2023-02-01T01:19:52.167Z,3.264160156
2023-02-01T01:21:23.417Z,3.223876953
2023-02-01T01:22:24.024Z,3.223876953
2023-02-01T01:23:24.691Z,3.203735352
2023-02-01T01:24:25.887Z,3.193664551
2023-02-01T01:25:26.363Z,3.173522949
2023-02-01T01:26:26.909Z,3.163452148
2023-02-01T01:27:27.431Z,3.133239746
2023-02-01T01:28:27.977Z,3.133239746
2023-02-01T01:29:28.418Z,3.123168945
2023-02-01T01:30:29.715Z,3.103027344
2023-02-01T01:31:30.253Z,3.082885742
2023-02-01T01:32:30.676Z,3.072814941
2023-02-01T01:33:31.195Z,3.082885742
2023-02-01T01:34:32.388Z,3.082885742
2023-02-01T01:35:32.856Z,3.05267334
2023-02-01T01:36:33.543Z,3.05267334
2023-02-01T01:37:34.123Z,3.022460938
2023-02-01T01:38:34.715Z,3.012390137
2023-02-01T01:39:35.137Z,3.022460938
2023-02-01T01:40:35.658Z,3.022460938
2023-02-01T01:41:36.086Z,3.012390137
2023-02-01T01:42:36.679Z,2.992248535
2023-02-01T01:43:37.173Z,2.982177734
2023-02-01T01:44:38.660Z,2.972106934
2023-02-01T01:45:39.138Z,2.972106934
2023-02-01T01:46:39.589Z,2.951965332
2023-02-01T01:47:40.695Z,2.941894531
2023-02-01T01:48:41.214Z,2.92175293
2023-02-01T01:49:41.756Z,2.92175293
2023-02-01T01:50:42.202Z,2.901611328
2023-02-01T01:51:43.354Z,2.871398926
2023-02-01T01:52:43.936Z,2.891540527
2023-02-01T01:53:44.470Z,2.871398926
2023-02-01T01:54:46.044Z,2.871398926
2023-02-01T01:55:46.432Z,2.861328125
2023-02-01T01:56:47.658Z,2.861328125
2023-02-01T01:57:48.097Z,2.861328125
2023-02-01T01:58:48.664Z,2.841186523
2023-02-01T01:59:49.289Z,2.871398926
2023-02-01T02:00:49.765Z,2.861328125
2023-02-01T02:01:50.355Z,2.861328125
2023-02-01T02:02:50.746Z,2.891540527
2023-02-01T02:03:51.428Z,2.891540527
2023-02-01T02:05:23.189Z,2.871398926
2023-02-01T02:06:23.639Z,2.861328125
2023-02-01T02:07:24.853Z,2.861328125
2023-02-01T02:08:25.366Z,2.841186523
2023-02-01T02:09:25.859Z,2.831115723
2023-02-01T02:10:26.325Z,2.80090332
2023-02-01T02:11:26.828Z,2.80090332
2023-02-01T02:12:27.241Z,2.79083252
2023-02-01T02:13:27.746Z,2.79083252
2023-02-01T02:14:28.869Z,2.80090332
2023-02-01T02:15:29.937Z,2.810974121
2023-02-01T02:16:30.494Z,2.79083252
2023-02-01T02:17:30.810Z,2.760620117
2023-02-01T02:18:31.290Z,2.730407715
2023-02-01T02:19:31.709Z,2.710266113
2023-02-01T02:20:33.139Z,2.690124512
2023-02-01T02:21:33.718Z,2.659912109
2023-02-01T02:22:34.112Z,2.690124512
2023-02-01T02:23:34.584Z,2.680053711
2023-02-01T02:24:35.630Z,2.730407715
2023-02-01T02:25:36.184Z,2.760620117
2023-02-01T02:26:36.707Z,2.770690918
2023-02-01T02:27:37.104Z,2.730407715
2023-02-01T02:28:37.619Z,2.710266113
2023-02-01T02:29:38.033Z,2.659912109
2023-02-01T02:30:38.540Z,2.629699707
2023-02-01T02:31:39.099Z,2.619628906
2023-02-01T02:32:39.485Z,2.619628906
2023-02-01T02:33:39.960Z,2.619628906
2023-02-01T02:34:41.621Z,2.589416504
2023-02-01T02:35:42.042Z,2.609558105
2023-02-01T02:36:42.617Z,2.649841309
2023-02-01T02:37:43.081Z,2.619628906
2023-02-01T02:38:43.477Z,2.609558105
2023-02-01T02:39:44.007Z,2.589416504
2023-02-01T02:40:44.456Z,2.589416504
2023-02-01T02:41:45.004Z,2.589416504
2023-02-01T02:42:45.527Z,2.579345703
2023-02-01T02:43:45.992Z,2.559204102
2023-02-01T02:44:47.142Z,2.549133301
2023-02-01T02:45:47.812Z,2.549133301
2023-02-01T02:46:48.061Z,2.559204102
2023-02-01T02:47:48.519Z,2.559204102
2023-02-01T02:48:49.949Z,2.508850098
2023-02-01T02:49:50.429Z,2.508850098
2023-02-01T02:50:50.900Z,2.498779297
2023-02-01T02:51:51.866Z,2.528991699
2023-02-01T02:53:22.483Z,2.508850098
2023-02-01T02:54:23.065Z,2.528991699
2023-02-01T02:55:24.395Z,2.498779297
2023-02-01T02:56:24.887Z,2.498779297
2023-02-01T02:57:25.368Z,2.478637695
2023-02-01T02:58:26.753Z,2.498779297
2023-02-01T02:59:27.206Z,2.478637695
2023-02-01T03:00:27.669Z,2.468566895
2023-02-01T03:01:28.262Z,2.478637695
2023-02-01T03:02:28.702Z,2.478637695
2023-02-01T03:03:29.138Z,2.478637695
2023-02-01T03:04:29.714Z,2.478637695
2023-02-01T03:05:30.155Z,2.448425293
2023-02-01T03:06:31.471Z,2.478637695
2023-02-01T03:07:31.914Z,2.468566895
2023-02-01T03:08:32.365Z,2.468566895
2023-02-01T03:09:32.822Z,2.468566895
2023-02-01T03:10:33.247Z,2.448425293
2023-02-01T03:11:33.728Z,2.448425293
2023-02-01T03:12:35.164Z,2.438354492
2023-02-01T03:13:35.610Z,2.428283691
2023-02-01T03:14:36.630Z,2.40814209
2023-02-01T03:15:37.098Z,2.40814209
2023-02-01T03:16:37.699Z,2.40814209
2023-02-01T03:17:37.954Z,2.428283691
2023-02-01T03:18:39.409Z,2.428283691
2023-02-01T03:19:39.843Z,2.428283691
2023-02-01T03:20:40.319Z,2.40814209
2023-02-01T03:21:40.808Z,2.40814209
2023-02-01T03:22:41.277Z,2.398071289
2023-02-01T03:23:41.794Z,2.398071289
2023-02-01T03:24:43.120Z,2.40814209
2023-02-01T03:25:43.600Z,2.377929688
2023-02-01T03:26:44.137Z,2.428283691
2023-02-01T03:27:44.487Z,2.40814209
2023-02-01T03:28:44.916Z,2.377929688
2023-02-01T03:29:45.423Z,2.367858887
2023-02-01T03:30:45.917Z,2.357788086
2023-02-01T03:31:46.403Z,2.357788086
2023-02-01T03:32:46.774Z,2.327575684
2023-02-01T03:33:47.175Z,2.357788086
2023-02-01T03:34:48.633Z,2.327575684
2023-02-01T03:35:49.049Z,2.327575684
2023-02-01T03:36:49.510Z,2.327575684
2023-02-01T03:37:49.960Z,2.367858887
2023-02-01T03:38:50.339Z,2.327575684
2023-02-01T03:39:51.252Z,2.317504883
2023-02-01T03:41:21.973Z,2.317504883
2023-02-01T03:42:23.423Z,2.28729248
2023-02-01T03:43:23.885Z,2.247009277
2023-02-01T03:44:24.319Z,2.267150879
2023-02-01T03:45:24.810Z,2.257080078
2023-02-01T03:46:25.921Z,2.28729248
2023-02-01T03:47:26.342Z,2.28729248
2023-02-01T03:48:26.794Z,2.28729248
2023-02-01T03:49:27.301Z,2.267150879
2023-02-01T03:50:27.707Z,2.267150879
2023-02-01T03:51:28.920Z,2.226867676
2023-02-01T03:52:29.374Z,2.257080078
2023-02-01T03:53:29.808Z,2.216796875
2023-02-01T03:54:30.274Z,2.216796875
2023-02-01T03:55:31.317Z,2.226867676
2023-02-01T03:56:31.782Z,2.216796875
2023-02-01T03:57:32.264Z,2.196655273
2023-02-01T03:58:33.354Z,2.216796875
2023-02-01T03:59:33.769Z,2.247009277
2023-02-01T04:00:34.165Z,2.216796875
2023-02-01T04:01:34.693Z,2.196655273
2023-02-01T04:02:35.253Z,2.196655273
2023-02-01T04:03:35.556Z,2.196655273
2023-02-01T04:04:36.111Z,2.216796875
2023-02-01T04:05:37.326Z,2.216796875
2023-02-01T04:06:37.822Z,2.247009277
2023-02-01T04:07:38.308Z,2.247009277
2023-02-01T04:08:38.753Z,2.226867676
2023-02-01T04:09:39.183Z,2.226867676
2023-02-01T04:10:39.639Z,2.226867676
2023-02-01T04:11:40.045Z,2.216796875
2023-02-01T04:12:40.755Z,2.216796875
2023-02-01T04:13:41.219Z,2.196655273
2023-02-01T04:14:41.648Z,2.196655273
2023-02-01T04:15:42.845Z,2.226867676
2023-02-01T04:16:43.379Z,2.216796875
2023-02-01T04:17:43.815Z,2.226867676
2023-02-01T04:18:45.123Z,2.247009277
2023-02-01T04:19:45.644Z,2.267150879
2023-02-01T04:20:46.039Z,2.267150879
2023-02-01T04:21:46.511Z,2.267150879
2023-02-01T04:22:46.978Z,2.28729248
2023-02-01T04:23:47.374Z,2.28729248
2023-02-01T04:24:47.835Z,2.28729248
2023-02-01T04:25:48.856Z,2.267150879
2023-02-01T04:26:49.422Z,2.297363281
2023-02-01T04:27:49.799Z,2.297363281
2023-02-01T04:28:50.666Z,2.267150879
2023-02-01T04:30:21.603Z,2.297363281
2023-02-01T04:31:21.920Z,2.317504883
2023-02-01T04:32:22.311Z,2.28729248
2023-02-01T04:33:22.703Z,2.297363281
2023-02-01T04:34:23.192Z,2.28729248
2023-02-01T04:35:24.641Z,2.28729248
2023-02-01T04:36:25.049Z,2.267150879
2023-02-01T04:37:25.521Z,2.297363281
2023-02-01T04:38:25.944Z,2.28729248
2023-02-01T04:39:26.396Z,2.257080078
2023-02-01T04:40:26.855Z,2.257080078
2023-02-01T04:41:27.292Z,2.257080078
2023-02-01T04:42:27.717Z,2.257080078
2023-02-01T04:43:28.190Z,2.267150879
2023-02-01T04:44:28.638Z,2.247009277
2023-02-01T04:45:29.621Z,2.226867676
2023-02-01T04:46:30.182Z,2.216796875
2023-02-01T04:47:30.480Z,2.186584473
2023-02-01T04:48:31.637Z,2.186584473
2023-02-01T04:49:32.023Z,2.136230469
2023-02-01T04:50:32.516Z,2.116088867
2023-02-01T04:51:32.999Z,2.116088867
2023-02-01T04:52:33.458Z,2.106018066
2023-02-01T04:53:33.889Z,2.136230469
2023-02-01T04:54:34.306Z,2.136230469
2023-02-01T04:55:35.671Z,2.136230469
2023-02-01T04:56:36.078Z,2.136230469
2023-02-01T04:57:36.555Z,2.116088867
2023-02-01T04:58:36.972Z,2.136230469
2023-02-01T04:59:37.352Z,2.136230469
2023-02-01T05:00:37.854Z,2.14630127
2023-02-01T05:01:38.384Z,2.14630127
2023-02-01T05:02:38.735Z,2.136230469
2023-02-01T05:03:39.204Z,2.136230469
2023-02-01T05:04:39.641Z,2.116088867
2023-02-01T05:05:41.110Z,2.075805664
2023-02-01T05:06:41.586Z,2.075805664
2023-02-01T05:07:41.981Z,2.045593262
2023-02-01T05:08:42.486Z,2.065734863
2023-02-01T05:09:42.853Z,2.065734863
2023-02-01T05:10:43.366Z,2.045593262
2023-02-01T05:11:43.804Z,2.045593262
2023-02-01T05:12:44.535Z,2.045593262
2023-02-01T05:13:45.027Z,2.035522461
2023-02-01T05:14:45.876Z,2.015380859
2023-02-01T05:15:47.273Z,2.045593262
2023-02-01T05:16:47.698Z,2.075805664
2023-02-01T05:17:48.137Z,2.075805664
2023-02-01T05:18:48.597Z,2.106018066
2023-02-01T05:19:49.012Z,2.085876465
2023-02-01T05:20:50.141Z,2.005310059
2023-02-01T05:22:20.763Z,2.015380859
2023-02-01T05:23:21.280Z,2.005310059
2023-02-01T05:24:21.723Z,2.005310059
2023-02-01T05:25:22.130Z,1.995239258
2023-02-01T05:26:23.425Z,1.954956055
2023-02-01T05:27:23.836Z,1.975097656
2023-02-01T05:28:24.370Z,2.005310059
2023-02-01T05:29:24.787Z,2.005310059
2023-02-01T05:30:25.474Z,1.995239258
2023-02-01T05:31:25.871Z,1.975097656
2023-02-01T05:32:26.217Z,2.005310059
2023-02-01T05:33:26.564Z,1.995239258
2023-02-01T05:34:27.045Z,1.995239258
2023-02-01T05:35:28.138Z,1.975097656
2023-02-01T05:36:28.621Z,1.954956055
2023-02-01T05:37:29.620Z,1.954956055
2023-02-01T05:38:30.090Z,1.954956055
2023-02-01T05:39:30.526Z,1.934814453
2023-02-01T05:40:30.943Z,1.975097656
2023-02-01T05:41:31.492Z,1.975097656
2023-02-01T05:42:31.910Z,2.005310059
2023-02-01T05:43:32.295Z,1.975097656
2023-02-01T05:44:32.758Z,1.975097656
2023-02-01T05:45:33.192Z,1.954956055
2023-02-01T05:46:34.481Z,1.954956055
2023-02-01T05:47:34.875Z,1.954956055
2023-02-01T05:48:35.268Z,1.954956055
2023-02-01T05:49:36.419Z,1.975097656
2023-02-01T05:50:36.831Z,1.975097656
2023-02-01T05:51:37.290Z,2.005310059
2023-02-01T05:52:37.757Z,2.065734863
2023-02-01T05:53:38.152Z,2.065734863
2023-02-01T05:54:38.631Z,2.106018066
2023-02-01T05:55:39.623Z,2.136230469
2023-02-01T05:56:40.175Z,2.116088867
2023-02-01T05:57:40.789Z,2.106018066
2023-02-01T05:58:41.291Z,2.085876465
2023-02-01T05:59:41.740Z,2.075805664
2023-02-01T06:00:42.110Z,2.075805664
2023-02-01T06:01:42.589Z,2.065734863
2023-02-01T06:02:43.051Z,2.065734863
2023-02-01T06:03:43.422Z,2.075805664
2023-02-01T06:04:43.859Z,2.106018066
2023-02-01T06:05:44.232Z,2.106018066
2023-02-01T06:06:44.677Z,2.116088867
2023-02-01T06:07:45.120Z,2.14630127
2023-02-01T06:08:45.491Z,2.196655273
2023-02-01T06:09:46.028Z,2.216796875
2023-02-01T06:10:46.436Z,2.216796875
2023-02-01T06:11:46.905Z,2.216796875
2023-02-01T06:12:47.387Z,2.216796875
2023-02-01T06:13:47.794Z,2.226867676
2023-02-01T06:14:48.283Z,2.247009277
2023-02-01T06:15:49.640Z,2.267150879
2023-02-01T06:17:20.339Z,2.28729248
2023-02-01T06:18:20.749Z,2.267150879
2023-02-01T06:19:21.217Z,2.257080078
2023-02-01T06:20:22.067Z,2.267150879
2023-02-01T06:21:22.821Z,2.267150879
2023-02-01T06:22:23.389Z,2.317504883
2023-02-01T06:23:23.941Z,2.317504883
2023-02-01T06:24:24.311Z,2.317504883
2023-02-01T06:25:24.755Z,2.357788086
2023-02-01T06:26:25.937Z,2.367858887
2023-02-01T06:27:26.367Z,2.367858887
2023-02-01T06:28:26.799Z,2.357788086
2023-02-01T06:29:27.285Z,2.357788086
2023-02-01T06:30:27.688Z,2.367858887
2023-02-01T06:31:29.061Z,2.377929688
2023-02-01T06:32:29.407Z,2.428283691
2023-02-01T06:33:29.841Z,2.428283691
2023-02-01T06:34:30.341Z,2.428283691
2023-02-01T06:35:30.747Z,2.438354492
2023-02-01T06:36:31.895Z,2.448425293
2023-02-01T06:37:32.311Z,2.448425293
2023-02-01T06:38:32.818Z,2.468566895
2023-02-01T06:39:33.260Z,2.478637695
2023-02-01T06:40:33.679Z,2.508850098
2023-02-01T06:41:34.172Z,2.559204102
2023-02-01T06:42:34.639Z,2.559204102
2023-02-01T06:43:35.051Z,2.579345703
2023-02-01T06:44:35.601Z,2.609558105
2023-02-01T06:45:36.079Z,2.609558105
2023-02-01T06:46:36.690Z,2.579345703
2023-02-01T06:47:38.894Z,2.549133301
2023-02-01T06:48:37.613Z,2.508850098
2023-02-01T06:49:37.976Z,2.508850098
2023-02-01T06:50:38.455Z,2.549133301
2023-02-01T06:51:39.926Z,2.528991699
2023-02-01T06:52:40.659Z,2.528991699
2023-02-01T06:53:41.083Z,2.528991699
2023-02-01T06:54:41.602Z,2.549133301
2023-02-01T06:55:42.059Z,2.579345703
2023-02-01T06:56:42.584Z,2.589416504
2023-02-01T06:57:43.623Z,2.609558105
2023-02-01T06:58:44.142Z,2.619628906
2023-02-01T06:59:44.586Z,2.619628906
2023-02-01T07:00:45.032Z,2.619628906
2023-02-01T07:01:45.630Z,2.609558105
2023-02-01T07:02:46.040Z,2.589416504
2023-02-01T07:03:46.605Z,2.589416504
2023-02-01T07:04:46.931Z,2.579345703
2023-02-01T07:05:47.370Z,2.589416504
2023-02-01T07:06:48.819Z,2.589416504
2023-02-01T07:08:19.539Z,2.559204102
2023-02-01T07:09:20.046Z,2.579345703
2023-02-01T07:10:20.652Z,2.589416504
2023-02-01T07:11:20.972Z,2.589416504
2023-02-01T07:12:21.401Z,2.609558105
2023-02-01T07:13:21.859Z,2.619628906
2023-02-01T07:14:22.429Z,2.619628906
2023-02-01T07:15:25.306Z,2.619628906
2023-02-01T07:16:24.226Z,2.609558105
2023-02-01T07:17:24.676Z,2.629699707
2023-02-01T07:18:25.143Z,2.619628906
2023-02-01T07:19:25.671Z,2.649841309
2023-02-01T07:20:26.148Z,2.629699707
2023-02-01T07:21:27.400Z,2.619628906
2023-02-01T07:22:27.879Z,2.619628906
2023-02-01T07:23:28.322Z,2.579345703
2023-02-01T07:24:28.851Z,2.528991699
2023-02-01T07:25:29.331Z,2.498779297
2023-02-01T07:26:30.730Z,2.498779297
2023-02-01T07:27:31.105Z,2.498779297
2023-02-01T07:28:31.519Z,2.498779297
2023-02-01T07:29:32.041Z,2.468566895
2023-02-01T07:30:32.525Z,2.498779297
2023-02-01T07:31:33.045Z,2.528991699
2023-02-01T07:32:33.567Z,2.508850098
2023-02-01T07:33:33.946Z,2.498779297
2023-02-01T07:34:34.435Z,2.498779297
2023-02-01T07:35:34.911Z,2.528991699
2023-02-01T07:36:36.312Z,2.549133301
2023-02-01T07:37:36.615Z,2.579345703
2023-02-01T07:38:37.030Z,2.619628906
2023-02-01T07:39:37.432Z,2.659912109
2023-02-01T07:40:38.073Z,2.659912109
2023-02-01T07:41:39.364Z,2.649841309
2023-02-01T07:42:39.830Z,2.629699707
2023-02-01T07:43:40.295Z,2.619628906
2023-02-01T07:44:40.745Z,2.619628906
2023-02-01T07:45:41.303Z,2.609558105
2023-02-01T07:46:41.782Z,2.609558105
2023-02-01T07:47:42.276Z,2.619628906
2023-02-01T07:48:42.745Z,2.619628906
2023-02-01T07:49:43.146Z,2.649841309
2023-02-01T07:50:43.663Z,2.659912109
2023-02-01T07:51:44.218Z,2.680053711
2023-02-01T07:52:44.695Z,2.710266113
2023-02-01T07:53:45.195Z,2.690124512
2023-02-01T07:54:45.621Z,2.710266113
2023-02-01T07:55:46.137Z,2.690124512
2023-02-01T07:56:47.172Z,2.690124512
2023-02-01T07:57:47.622Z,2.740478516
2023-02-01T07:59:18.587Z,2.740478516
2023-02-01T08:00:19.132Z,2.770690918
2023-02-01T08:01:19.720Z,2.80090332
2023-02-01T08:02:20.036Z,2.831115723
2023-02-01T08:03:20.571Z,2.861328125
2023-02-01T08:04:21.959Z,2.871398926
2023-02-01T08:05:22.423Z,2.901611328
2023-02-01T08:06:22.833Z,2.92175293
2023-02-01T08:07:23.864Z,2.901611328
2023-02-01T08:08:24.332Z,2.871398926
2023-02-01T08:09:24.875Z,2.871398926
2023-02-01T08:10:25.701Z,2.871398926
2023-02-01T08:11:25.710Z,2.831115723
2023-02-01T08:12:26.532Z,2.80090332
2023-02-01T08:13:26.759Z,2.760620117
2023-02-01T08:14:27.264Z,2.760620117
2023-02-01T08:15:27.760Z,2.730407715
2023-02-01T08:16:28.353Z,2.730407715
2023-02-01T08:17:29.434Z,2.710266113
2023-02-01T08:18:29.919Z,2.740478516
2023-02-01T08:19:30.390Z,2.79083252
2023-02-01T08:20:30.898Z,2.810974121
2023-02-01T08:21:31.323Z,2.831115723
2023-02-01T08:22:31.849Z,2.831115723
2023-02-01T08:23:32.247Z,2.861328125
2023-02-01T08:24:32.782Z,2.861328125
2023-02-01T08:25:33.265Z,2.841186523
2023-02-01T08:26:35.004Z,2.841186523
2023-02-01T08:27:36.333Z,2.831115723
2023-02-01T08:28:37.982Z,2.831115723
2023-02-01T08:29:37.267Z,2.831115723
2023-02-01T08:30:37.764Z,2.841186523
2023-02-01T08:31:38.329Z,2.861328125
2023-02-01T08:32:38.817Z,2.92175293
2023-02-01T08:33:39.246Z,2.941894531
2023-02-01T08:34:39.808Z,2.982177734
2023-02-01T08:35:43.734Z,2.982177734
2023-02-01T08:36:41.144Z,2.992248535
2023-02-01T08:37:42.362Z,3.022460938
2023-02-01T08:38:42.817Z,3.05267334
2023-02-01T08:39:43.412Z,3.042602539
2023-02-01T08:40:43.844Z,3.072814941
2023-02-01T08:41:44.432Z,3.072814941
2023-02-01T08:42:44.901Z,3.072814941
2023-02-01T08:43:45.360Z,3.072814941
2023-02-01T08:44:45.863Z,3.072814941
2023-02-01T08:45:46.332Z,3.123168945
2023-02-01T08:46:46.944Z,3.193664551
2023-02-01T08:48:18.709Z,3.203735352
2023-02-01T08:49:19.189Z,3.223876953
2023-02-01T08:50:20.719Z,3.254089355
2023-02-01T08:51:21.219Z,3.264160156
2023-02-01T08:52:21.672Z,3.233947754
2023-02-01T08:53:22.315Z,3.264160156
2023-02-01T08:54:22.844Z,3.254089355
2023-02-01T08:55:23.291Z,3.304443359
2023-02-01T08:56:23.855Z,3.334655762
2023-02-01T08:57:24.856Z,3.344726563
2023-02-01T08:58:25.352Z,3.385009766
2023-02-01T08:59:27.847Z,3.43536377
2023-02-01T09:00:26.594Z,3.485717773
2023-02-01T09:01:26.822Z,3.515930176
2023-02-01T09:02:27.308Z,3.526000977
2023-02-01T09:03:27.905Z,3.556213379
2023-02-01T09:04:28.371Z,3.586425781
2023-02-01T09:05:40.671Z,3.616638184
2023-02-01T09:06:29.480Z,3.636779785
2023-02-01T09:07:30.812Z,3.677062988
2023-02-01T09:08:31.363Z,3.717346191
2023-02-01T09:09:31.871Z,3.747558594
2023-02-01T09:10:35.239Z,3.747558594
2023-02-01T09:11:33.346Z,3.737487793
2023-02-01T09:12:33.778Z,3.707275391
2023-02-01T09:13:35.112Z,3.666992188
2023-02-01T09:14:35.674Z,3.626708984
2023-02-01T09:15:36.188Z,3.616638184
2023-02-01T09:16:36.542Z,3.626708984
2023-02-01T09:17:37.891Z,3.626708984
2023-02-01T09:18:45.990Z,3.666992188
2023-02-01T09:19:39.189Z,3.69720459
2023-02-01T09:20:39.322Z,3.717346191
2023-02-01T09:21:40.449Z,3.737487793
2023-02-01T09:22:40.927Z,3.777770996
2023-02-01T09:23:41.376Z,3.818054199
2023-02-01T09:24:41.939Z,3.878479004
2023-02-01T09:25:42.504Z,3.898620605
2023-02-01T09:26:42.917Z,3.95904541
2023-02-01T09:27:44.407Z,4.019470215
2023-02-01T09:28:44.861Z,4.07989502
2023-02-01T09:29:45.279Z,4.110107422
2023-02-01T09:30:46.002Z,4.21081543
2023-02-01T09:32:17.710Z,4.261169434
2023-02-01T09:33:17.972Z,4.311523438
2023-02-01T09:34:18.433Z,4.311523438
2023-02-01T09:35:18.878Z,4.311523438
2023-02-01T09:36:19.318Z,4.321594238
2023-02-01T09:37:20.670Z,4.351806641
2023-02-01T09:38:21.065Z,4.351806641
2023-02-01T09:39:21.481Z,4.382019043
2023-02-01T09:40:22.428Z,4.392089844
2023-02-01T09:41:22.503Z,4.422302246
2023-02-01T09:42:23.056Z,4.422302246
2023-02-01T09:43:23.525Z,4.392089844
2023-02-01T09:44:25.759Z,4.422302246
2023-02-01T09:45:24.448Z,4.422302246
2023-02-01T09:46:24.926Z,4.422302246
2023-02-01T09:47:26.182Z,4.422302246
2023-02-01T09:48:26.683Z,4.432373047
2023-02-01T09:49:27.105Z,4.442443848
2023-02-01T09:50:27.653Z,4.422302246
2023-02-01T09:51:27.970Z,4.432373047
2023-02-01T09:52:28.431Z,4.442443848
2023-02-01T09:53:28.983Z,4.442443848
2023-02-01T09:54:30.769Z,4.47265625
2023-02-01T09:55:29.917Z,4.492797852
2023-02-01T09:56:30.363Z,4.512939453
2023-02-01T09:57:31.674Z,4.533081055
2023-02-01T09:58:32.102Z,4.573364258
2023-02-01T09:59:32.571Z,4.573364258
2023-02-01T10:00:33.071Z,4.613647461
2023-02-01T10:01:33.522Z,4.613647461
2023-02-01T10:02:33.946Z,4.593505859
2023-02-01T10:03:34.468Z,4.573364258
2023-02-01T10:04:34.872Z,4.573364258
2023-02-01T10:05:35.655Z,4.573364258
2023-02-01T10:06:36.385Z,4.573364258
2023-02-01T10:07:37.813Z,4.593505859
2023-02-01T10:08:38.734Z,4.573364258
2023-02-01T10:09:39.183Z,4.543151855
2023-02-01T10:10:39.707Z,4.543151855
2023-02-01T10:11:41.675Z,4.512939453
2023-02-01T10:12:42.517Z,4.512939453
2023-02-01T10:13:43.062Z,4.502868652
2023-02-01T10:14:43.547Z,4.47265625
2023-02-01T10:15:44.210Z,4.422302246
2023-02-01T10:16:44.873Z,4.382019043
2023-02-01T10:17:46.096Z,4.361877441
2023-02-01T10:19:17.025Z,4.351806641
2023-02-01T10:20:17.410Z,4.351806641
2023-02-01T10:21:18.933Z,4.34173584
2023-02-01T10:22:19.317Z,4.351806641
2023-02-01T10:23:33.275Z,4.361877441
2023-02-01T10:24:20.344Z,4.351806641
2023-02-01T10:25:20.831Z,4.351806641
2023-02-01T10:26:21.574Z,4.361877441
2023-02-01T10:27:21.867Z,4.382019043
2023-02-01T10:28:22.928Z,4.382019043
2023-02-01T10:29:23.356Z,4.422302246
2023-02-01T10:30:24.226Z,4.432373047
2023-02-01T10:31:25.309Z,4.462585449
2023-02-01T10:32:25.746Z,4.47265625
2023-02-01T10:33:26.150Z,4.47265625
2023-02-01T10:34:26.643Z,4.462585449
2023-02-01T10:35:27.127Z,4.47265625
2023-02-01T10:36:29.186Z,4.47265625
2023-02-01T10:37:28.197Z,4.47265625
2023-02-01T10:38:28.684Z,4.492797852
2023-02-01T10:39:29.798Z,4.512939453
2023-02-01T10:40:30.212Z,4.543151855
2023-02-01T10:41:30.977Z,4.563293457
2023-02-01T10:42:31.384Z,4.613647461
2023-02-01T10:43:31.922Z,4.653930664
2023-02-01T10:44:32.393Z,4.694213867
2023-02-01T10:45:32.804Z,4.72442627
2023-02-01T10:46:33.379Z,4.774780273
2023-02-01T10:47:33.985Z,4.804992676
2023-02-01T10:48:35.353Z,4.835205078
2023-02-01T10:49:35.855Z,4.875488281
2023-02-01T10:50:36.365Z,4.935913086
2023-02-01T10:51:37.484Z,4.956054688
2023-02-01T10:52:38.097Z,5.006408691
2023-02-01T10:53:38.637Z,5.046691895
2023-02-01T10:54:39.086Z,5.107116699
2023-02-01T10:55:41.142Z,5.137329102
2023-02-01T10:56:40.368Z,5.167541504
2023-02-01T10:57:40.802Z,5.197753906
2023-02-01T10:58:41.920Z,5.217895508
2023-02-01T10:59:44.927Z,5.227966309
2023-02-01T11:00:43.146Z,5.258178711
2023-02-01T11:01:43.623Z,5.268249512